Latest Weather Observations for Perisher Valley

IDN60801

Issued at 10:32 pm EST Sunday 3 May 2015 (issued every 30 minutes, with the page automatically refreshed every 10 minutes)

About weather observations | Map of weather stations | Latest weather observations for NSW | Other Formats
Station Details ID: 071075 Name: PERISHER VALLEY AWS Lat: -36.41 Lon: 148.41 Height: 1738.0 m
Data from the previous 72 hours. | See also: Recent months at Perisher Valley
Date/Time
EST
Temp
°C
App
Temp
°C
Dew
Point
Rel
Hum
%
Delta-T
°C
Wind Press
QNH
hPa
Press
MSL
hPa
Rain
since 9 am
mm
Dir
 
Spd
km/h
Gust
km/h
Spd
kts
Gust
kts
03/10:30pm 5.0 3.4 4.6 97 0.2 ENE 2 6 1 3 - - 0.0
03/10:00pm 5.3 3.8 4.9 97 0.2 ESE 2 6 1 3 - - 0.0
03/09:30pm 4.7 3.1 4.3 97 0.2 NNW 2 7 1 4 - - 0.0
03/09:00pm 3.9 2.4 3.2 95 0.3 CALM 0 2 0 1 - - 0.0
03/08:30pm 4.7 3.0 4.0 95 0.3 WSW 2 4 1 2 - - 0.0
03/08:00pm 5.8 4.8 5.4 97 0.2 CALM 0 0 0 0 - - 0.0
03/07:30pm 5.2 4.0 4.6 96 0.3 CALM 0 2 0 1 - - 0.0
03/07:00pm 5.0 3.4 4.4 96 0.3 SW 2 6 1 3 - - 0.0
03/06:30pm 4.0 2.1 3.1 94 0.4 ESE 2 4 1 2 - - 0.0
03/06:00pm 4.6 2.8 3.7 94 0.4 WSW 2 6 1 3 - - 0.0
03/05:30pm 6.0 4.1 4.8 92 0.6 SW 4 4 2 2 - - 0.0
03/05:00pm 7.7 6.2 5.2 84 1.2 NNE 2 4 1 2 - - 0.0
03/04:30pm 9.2 8.0 6.3 82 1.5 N 2 4 1 2 - - 0.0
03/04:00pm 10.6 8.6 6.9 78 1.9 ENE 7 13 4 7 - - 0.0
03/03:30pm 12.6 10.7 7.7 72 2.6 ENE 7 13 4 7 - - 0.0
03/03:00pm 12.6 10.2 7.1 69 2.9 ESE 9 19 5 10 - - 0.0
03/02:30pm 14.2 12.3 6.8 61 3.9 ENE 6 13 3 7 - - 0.0
03/02:00pm 14.8 12.1 3.6 47 5.6 W 7 17 4 9 - - 0.0
03/01:30pm 14.2 11.6 4.2 51 5.1 SSW 7 17 4 9 - - 0.0
03/01:00pm 14.0 12.1 7.5 65 3.5 SSE 7 13 4 7 - - 0.0
03/12:30pm 14.0 11.7 7.5 65 3.5 E 9 17 5 9 - - 0.0
03/12:00pm 13.8 11.2 7.6 66 3.4 E 11 17 6 9 - - 0.0
03/11:30am 13.7 11.4 7.5 66 3.3 NE 9 17 5 9 - - 0.0
03/11:00am 12.4 10.4 6.2 66 3.2 E 6 9 3 5 - - 0.0
03/10:30am 11.9 9.8 6.0 67 3.1 NE 6 11 3 6 - - 0.0
03/10:00am 11.0 9.2 5.5 69 2.8 E 4 11 2 6 - - 0.0
03/09:30am 10.3 8.1 5.5 72 2.4 SSE 6 11 3 6 - - 0.0
03/09:00am 9.7 8.2 4.9 72 2.4 SSW 2 9 1 5 - - 0.0
03/08:30am 8.8 8.0 6.6 86 1.1 CALM 0 2 0 1 - - 0.0
03/08:00am 4.2 2.6 2.2 87 0.9 CALM 0 2 0 1 - - 0.0
03/07:30am 2.9 0.4 1.4 90 0.7 WSW 4 6 2 3 - - 0.0
03/07:00am 1.1 -1.3 -0.2 91 0.5 SSW 2 6 1 3 - - 0.0
03/06:30am 0.8 -2.0 -0.5 91 0.5 SW 4 6 2 3 - - 0.0
03/06:00am 0.3 -3.1 -0.8 92 0.5 SW 7 9 4 5 - - 0.0
03/05:30am 0.7 -1.7 -0.4 92 0.4 SW 2 4 1 2 - - 0.0
03/05:00am 0.7 -2.5 -0.6 91 0.5 SW 6 9 3 5 - - 0.0
03/04:30am 1.5 -1.2 0.0 90 0.6 SW 4 7 2 4 - - 0.0
03/04:00am 2.3 -0.3 0.8 90 0.6 SW 4 7 2 4 - - 0.0
03/03:30am 3.4 0.3 1.4 87 0.9 W 7 13 4 7 - - 0.0
03/03:00am 4.2 1.3 2.6 89 0.7 WSW 7 13 4 7 - - 0.0
03/02:30am 3.1 1.1 2.2 94 0.4 WSW 2 4 1 2 - - 0.0
03/02:00am 3.3 1.3 2.1 92 0.5 SW 2 4 1 2 - - 0.0
03/01:30am 3.8 1.8 2.2 89 0.7 NE 2 4 1 2 - - 0.0
03/01:00am 5.9 3.4 3.9 87 0.9 W 6 11 3 6 - - 0.0
03/12:30am 6.4 2.7 4.2 86 1.1 W 13 17 7 9 - - 0.0
03/12:00am 6.0 2.8 5.0 93 0.5 W 11 15 6 8 - - 0.0
 
Date/Time
EST
Temp
°C
App
Temp
°C
Dew
Point
Rel
Hum
%
Delta-T
°C
Wind Press
QNH
hPa
Press
MSL
hPa
Rain
since 9 am
mm
Dir
 
Spd
km/h
Gust
km/h
Spd
kts
Gust
kts
02/11:30pm 5.0 3.7 4.0 93 0.5 CALM 0 2 0 1 - - 0.0
02/11:00pm 4.6 2.5 3.9 95 0.3 WNW 4 7 2 4 - - 0.0
02/10:30pm 5.5 4.1 3.8 89 0.8 CALM 0 4 0 2 - - 0.0
02/10:00pm 6.8 4.9 5.0 88 0.9 SW 4 15 2 8 - - 0.0
02/09:30pm 7.5 5.1 4.1 79 1.6 WSW 6 15 3 8 - - 0.0
02/09:00pm 7.5 3.3 5.6 88 0.9 W 17 26 9 14 - - 0.0
02/08:30pm 7.5 4.4 5.5 87 1.0 WSW 11 28 6 15 - - 0.0
02/08:00pm 7.5 5.2 5.5 87 1.0 WSW 7 17 4 9 - - 0.0
02/07:30pm 7.3 5.5 5.6 89 0.8 E 4 11 2 6 - - 0.0
02/07:00pm 7.7 6.0 5.8 88 1.0 E 4 11 2 6 - - 0.0
02/06:30pm 7.9 6.2 6.0 88 1.0 NNE 4 11 2 6 - - 0.0
02/06:00pm 8.0 6.7 6.1 88 1.0 W 2 7 1 4 - - 0.0
02/05:30pm 8.6 6.1 6.6 87 1.0 WSW 9 19 5 10 - - 0.0
02/05:00pm 9.2 7.1 6.5 83 1.4 W 7 17 4 9 - - 0.0
02/04:30pm 9.7 7.7 6.2 79 1.8 NNE 6 11 3 6 - - 0.0
02/04:00pm 10.2 8.4 5.6 73 2.3 WSW 4 9 2 5 - - 0.0
02/03:30pm 10.5 8.8 7.6 82 1.5 NE 6 7 3 4 - - 0.0
02/03:00pm 11.0 9.2 7.9 81 1.7 NE 7 11 4 6 - - 0.0
02/02:30pm 10.3 8.1 7.9 85 1.3 NE 9 15 5 8 - - 0.0
02/02:00pm 10.6 8.0 7.7 82 1.5 NE 11 17 6 9 - - 0.0
02/01:30pm 11.2 9.1 8.2 82 1.6 NNE 9 15 5 8 - - 0.0
02/01:00pm 12.3 10.2 5.9 65 3.3 NNW 6 17 3 9 - - 0.0
02/12:30pm 12.5 10.8 6.1 65 3.3 NNW 4 15 2 8 - - 0.0
02/12:00pm 11.9 9.6 5.8 66 3.1 NW 7 24 4 13 - - 0.0
02/11:30am 11.2 9.0 6.1 71 2.6 WNW 7 20 4 11 - - 0.0
02/11:00am 10.9 8.7 6.1 72 2.5 NW 7 22 4 12 - - 0.0
02/10:30am 10.9 8.8 6.8 76 2.1 N 7 22 4 12 - - 0.0
02/10:00am 9.9 7.0 6.4 79 1.8 NE 11 15 6 8 - - 0.0
02/09:30am 10.4 7.3 5.6 72 2.4 NE 11 19 6 10 - - 0.0
02/09:00am 10.2 8.3 4.8 69 2.7 NNW 4 13 2 7 - - 0.0
02/08:30am 9.3 7.2 3.7 68 2.7 N 4 17 2 9 - - 0.0
02/08:00am 7.6 4.9 2.9 72 2.2 NE 6 13 3 7 - - 0.0
02/07:30am 6.9 4.5 2.0 71 2.2 WSW 4 9 2 5 - - 0.0
02/07:00am 4.7 2.3 -0.3 70 2.1 WSW 2 9 1 5 - - 0.0
02/06:30am 5.9 2.6 -1.0 61 2.9 WNW 6 11 3 6 - - 0.0
02/06:00am 6.3 3.2 0.4 66 2.6 NW 6 15 3 8 - - 0.0
02/05:30am 5.5 3.0 1.6 76 1.7 NNE 4 11 2 6 - - 0.0
02/05:00am 6.1 3.3 2.0 75 1.9 NNE 6 15 3 8 - - 0.0
02/04:30am 6.1 3.5 3.1 81 1.4 NNE 6 17 3 9 - - 0.0
02/04:00am 5.7 2.2 3.4 85 1.1 NNE 11 22 6 12 - - 0.0
02/03:30am 6.2 2.7 3.7 84 1.2 NNE 11 20 6 11 - - 0.0
02/03:00am 5.7 2.2 3.7 87 0.9 NNE 11 22 6 12 - - 0.0
02/02:30am 5.2 1.5 4.3 94 0.4 NNE 13 28 7 15 - - 0.0
02/02:00am 5.0 1.7 4.6 97 0.2 NNE 11 24 6 13 - - 0.0
02/01:30am 5.0 1.7 4.6 97 0.2 N 11 26 6 14 - - 0.0
02/01:00am 5.0 2.1 4.4 96 0.3 NE 9 17 5 9 - - 0.0
02/12:30am 4.1 1.3 3.4 95 0.3 NE 7 11 4 6 - - 0.0
02/12:00am 3.9 0.7 3.3 96 0.3 NE 9 13 5 7 - - 0.0
 
Date/Time
EST
Temp
°C
App
Temp
°C
Dew
Point
Rel
Hum
%
Delta-T
°C
Wind Press
QNH
hPa
Press
MSL
hPa
Rain
since 9 am
mm
Dir
 
Spd
km/h
Gust
km/h
Spd
kts
Gust
kts
01/11:30pm 4.4 1.3 3.8 96 0.3 NE 9 19 5 10 - - 0.0
01/11:00pm 4.1 1.5 3.4 95 0.3 NE 6 13 3 7 - - 0.0
01/10:30pm 4.2 1.6 3.3 94 0.4 NE 6 11 3 6 - - 0.0
01/10:00pm 3.7 1.0 2.8 94 0.4 NE 6 9 3 5 - - 0.0
01/09:30pm 4.3 2.4 2.8 90 0.7 NNW 2 6 1 3 - - 0.0
01/09:00pm 5.0 3.0 4.3 95 0.3 N 4 9 2 5 - - 0.0
01/08:30pm 2.7 0.6 2.0 95 0.3 NE 2 7 1 4 - - 0.0
01/08:00pm 2.9 0.8 2.0 94 0.4 ENE 2 7 1 4 - - 0.0
01/07:30pm 3.4 0.7 2.7 95 0.3 ENE 6 9 3 5 - - 0.0
01/07:00pm 3.7 1.4 3.0 95 0.3 ENE 4 7 2 4 - - 0.0
01/06:30pm 3.6 1.2 2.1 90 0.7 ENE 4 6 2 3 - - 0.0
01/06:00pm 5.3 3.3 4.3 93 0.5 N 4 7 2 4 - - 0.0
01/05:30pm 5.7 3.3 4.3 91 0.7 N 6 7 3 4 - - 0.0
01/05:00pm 5.9 3.5 4.4 90 0.7 NNE 6 9 3 5 - - 0.0
01/04:30pm 6.7 3.7 4.2 84 1.2 NNE 9 15 5 8 - - 0.0
01/04:00pm 7.5 4.2 4.5 81 1.5 NNE 11 20 6 11 - - 0.0
01/03:30pm 7.9 4.2 4.3 78 1.7 NE 13 22 7 12 - - 0.0
01/03:00pm 8.4 4.6 3.8 73 2.2 NE 13 20 7 11 - - 0.0
01/02:30pm 8.6 4.1 4.0 73 2.2 NE 17 26 9 14 - - 0.0
01/02:00pm 9.2 4.7 4.2 71 2.4 NE 17 26 9 14 - - 0.0
01/01:30pm 9.8 6.1 4.4 69 2.7 NE 13 20 7 11 - - 0.0
01/01:00pm 9.2 4.9 3.2 66 2.9 NE 15 22 8 12 - - 0.0
01/12:30pm 10.8 7.8 4.0 63 3.3 NE 9 17 5 9 - - 0.0
01/12:00pm 9.8 5.5 3.5 65 3.0 NE 15 24 8 13 - - 0.0
01/11:30am 9.5 6.5 4.3 70 2.6 NE 9 17 5 9 - - 0.0
01/11:00am 8.0 4.5 3.7 74 2.1 NE 11 19 6 10 - - 0.0
01/10:30am 6.5 3.5 4.0 84 1.2 NE 9 20 5 11 - - 0.0
01/10:00am 5.8 1.9 3.6 86 1.0 NE 13 20 7 11 - - 0.0
01/09:30am 6.4 2.5 3.6 82 1.3 NE 13 19 7 10 - - 0.0
01/09:00am 6.2 2.7 3.5 83 1.3 NE 11 17 6 9 - - 0.0
01/08:30am 5.4 3.0 5.1 98 0.1 ENE 7 11 4 6 - - 0.0
01/08:00am 1.2 -0.6 0.9 98 0.1 CALM 0 2 0 1 - - 0.0
01/07:30am -0.8 -3.0 -1.4 96 0.2 CALM 0 2 0 1 - - 0.0
01/07:00am -1.4 -3.7 -2.1 95 0.2 CALM 0 2 0 1 - - 0.0
01/06:30am -0.9 -3.1 -1.5 96 0.2 CALM 0 2 0 1 - - 0.0
01/06:00am -0.6 -2.8 -1.2 96 0.2 CALM 0 4 0 2 - - 0.0
01/05:30am -0.4 -2.5 -1.0 96 0.2 CALM 0 2 0 1 - - 0.0
01/05:00am -0.5 -2.7 -1.2 95 0.2 CALM 0 4 0 2 - - 0.0
01/04:30am 0.4 -1.6 -0.3 95 0.3 CALM 0 2 0 1 - - 0.0
01/04:00am 1.3 -0.6 0.6 95 0.3 CALM 0 2 0 1 - - 0.0
01/03:30am 2.5 0.1 2.1 97 0.2 NE 4 9 2 5 - - 0.0
01/03:00am 2.7 -0.7 2.1 96 0.3 NNE 9 20 5 11 - - 0.0
01/02:30am 2.5 0.1 1.9 96 0.3 NE 4 11 2 6 - - 0.0
01/02:00am 1.5 -0.7 0.8 95 0.3 SW 2 4 1 2 - - 0.0
01/01:30am 2.3 0.2 1.6 95 0.3 SSE 2 6 1 3 - - 0.0
01/01:00am 2.5 0.4 1.8 95 0.3 E 2 9 1 5 - - 0.0
01/12:30am 3.0 -0.7 2.3 95 0.3 NE 11 17 6 9 - - 0.0
01/12:00am 3.2 -0.5 2.5 95 0.3 NNE 11 17 6 9 - - 0.0
 
Date/Time
EST
Temp
°C
App
Temp
°C
Dew
Point
Rel
Hum
%
Delta-T
°C
Wind Press
QNH
hPa
Press
MSL
hPa
Rain
since 9 am
mm
Dir
 
Spd
km/h
Gust
km/h
Spd
kts
Gust
kts
30/11:30pm 3.4 0.5 2.7 95 0.3 ENE 7 11 4 6 - - 0.0
30/11:00pm 3.4 0.5 2.8 96 0.3 NE 7 11 4 6 - - 0.0

Other Formats:

Comma delimited format used in spreadsheet applications
http://www.bom.gov.au/fwo/IDN60801/IDN60801.94915.axf

JavaScript Object Notation format (JSON) in row-major order
http://www.bom.gov.au/fwo/IDN60801/IDN60801.94915.json